sensor_id;sensor_type;location;lat;lon;timestamp;pressure;altitude;pressure_sealevel;temperature;humidity
70103;BME280;57470;50.034;15.256;2022-08-19T00:01:38;98555.09;;;21.94;68.78
70103;BME280;57470;50.034;15.256;2022-08-19T00:04:07;98549.34;;;22.04;68.12
70103;BME280;57470;50.034;15.256;2022-08-19T00:06:34;98553.50;;;22.00;68.21
70103;BME280;57470;50.034;15.256;2022-08-19T00:09:00;98560.88;;;22.19;67.38
70103;BME280;57470;50.034;15.256;2022-08-19T00:11:26;98561.28;;;22.10;68.17
70103;BME280;57470;50.034;15.256;2022-08-19T00:13:54;98572.50;;;22.06;68.28
70103;BME280;57470;50.034;15.256;2022-08-19T00:16:20;98569.78;;;22.06;68.64
70103;BME280;57470;50.034;15.256;2022-08-19T00:18:46;98576.84;;;22.01;68.56
70103;BME280;57470;50.034;15.256;2022-08-19T00:21:12;98571.81;;;21.98;68.81
70103;BME280;57470;50.034;15.256;2022-08-19T00:23:37;98578.22;;;21.90;69.11
70103;BME280;57470;50.034;15.256;2022-08-19T00:26:04;98570.78;;;21.71;69.74
70103;BME280;57470;50.034;15.256;2022-08-19T00:28:31;98568.44;;;21.61;69.77
70103;BME280;57470;50.034;15.256;2022-08-19T00:30:58;98567.59;;;21.33;71.08
70103;BME280;57470;50.034;15.256;2022-08-19T00:33:23;98549.81;;;21.24;71.10
70103;BME280;57470;50.034;15.256;2022-08-19T00:35:48;98549.88;;;21.30;70.55
70103;BME280;57470;50.034;15.256;2022-08-19T00:38:14;98540.28;;;21.28;70.45
70103;BME280;57470;50.034;15.256;2022-08-19T00:40:42;98544.53;;;21.37;69.98
70103;BME280;57470;50.034;15.256;2022-08-19T00:43:10;98542.41;;;21.32;70.64
70103;BME280;57470;50.034;15.256;2022-08-19T00:45:38;98543.16;;;21.20;70.44
70103;BME280;57470;50.034;15.256;2022-08-19T00:48:07;98547.81;;;21.11;70.71
70103;BME280;57470;50.034;15.256;2022-08-19T00:50:33;98548.91;;;21.17;70.78
70103;BME280;57470;50.034;15.256;2022-08-19T00:53:00;98552.72;;;21.22;70.26
70103;BME280;57470;50.034;15.256;2022-08-19T00:55:30;98536.53;;;20.86;71.89
70103;BME280;57470;50.034;15.256;2022-08-19T00:58:07;98527.53;;;20.79;72.09
70103;BME280;57470;50.034;15.256;2022-08-19T01:00:35;98522.50;;;20.76;72.23
70103;BME280;57470;50.034;15.256;2022-08-19T01:03:03;98523.31;;;20.91;71.26
70103;BME280;57470;50.034;15.256;2022-08-19T01:05:29;98526.78;;;20.64;72.91
70103;BME280;57470;50.034;15.256;2022-08-19T01:07:56;98530.13;;;20.66;72.22
70103;BME280;57470;50.034;15.256;2022-08-19T01:10:25;98539.31;;;20.72;72.25
70103;BME280;57470;50.034;15.256;2022-08-19T01:12:52;98536.75;;;20.64;72.16
70103;BME280;57470;50.034;15.256;2022-08-19T01:15:23;98534.88;;;20.64;72.49
70103;BME280;57470;50.034;15.256;2022-08-19T01:17:50;98516.72;;;20.58;72.53
70103;BME280;57470;50.034;15.256;2022-08-19T01:20:20;98524.31;;;20.69;72.09
70103;BME280;57470;50.034;15.256;2022-08-19T01:22:49;98518.91;;;20.69;72.24
70103;BME280;57470;50.034;15.256;2022-08-19T01:25:19;98527.94;;;20.55;73.02
70103;BME280;57470;50.034;15.256;2022-08-19T01:27:47;98551.75;;;20.66;72.47
70103;BME280;57470;50.034;15.256;2022-08-19T01:30:18;98560.41;;;20.62;73.29
70103;BME280;57470;50.034;15.256;2022-08-19T01:32:44;98567.75;;;20.68;73.08
70103;BME280;57470;50.034;15.256;2022-08-19T01:35:11;98588.78;;;20.36;74.40
70103;BME280;57470;50.034;15.256;2022-08-19T01:37:54;98599.59;;;20.36;74.58
70103;BME280;57470;50.034;15.256;2022-08-19T01:40:22;98599.41;;;20.38;74.39
70103;BME280;57470;50.034;15.256;2022-08-19T01:42:50;98590.66;;;20.36;74.31
70103;BME280;57470;50.034;15.256;2022-08-19T01:45:19;98593.53;;;19.90;75.69
70103;BME280;57470;50.034;15.256;2022-08-19T01:47:46;98590.66;;;20.06;75.16
70103;BME280;57470;50.034;15.256;2022-08-19T01:50:13;98596.25;;;19.90;75.49
70103;BME280;57470;50.034;15.256;2022-08-19T01:52:42;98602.75;;;19.96;75.52
70103;BME280;57470;50.034;15.256;2022-08-19T01:55:13;98602.84;;;20.02;75.28
70103;BME280;57470;50.034;15.256;2022-08-19T01:57:44;98611.50;;;19.98;75.02
70103;BME280;57470;50.034;15.256;2022-08-19T02:00:13;98614.38;;;19.96;75.85
70103;BME280;57470;50.034;15.256;2022-08-19T02:02:41;98622.38;;;20.04;75.82
70103;BME280;57470;50.034;15.256;2022-08-19T02:05:06;98610.66;;;19.82;76.34
70103;BME280;57470;50.034;15.256;2022-08-19T02:07:34;98609.44;;;19.70;77.77
70103;BME280;57470;50.034;15.256;2022-08-19T02:10:03;98609.34;;;19.64;77.84
70103;BME280;57470;50.034;15.256;2022-08-19T02:12:28;98593.53;;;19.90;76.91
70103;BME280;57470;50.034;15.256;2022-08-19T02:14:54;98583.66;;;19.97;76.47
70103;BME280;57470;50.034;15.256;2022-08-19T02:17:19;98574.53;;;19.98;76.13
70103;BME280;57470;50.034;15.256;2022-08-19T02:19:45;98583.19;;;20.08;75.90
70103;BME280;57470;50.034;15.256;2022-08-19T02:22:11;98581.81;;;20.12;75.28
70103;BME280;57470;50.034;15.256;2022-08-19T02:24:36;98592.97;;;20.09;75.38
70103;BME280;57470;50.034;15.256;2022-08-19T02:27:02;98599.22;;;20.10;75.49
70103;BME280;57470;50.034;15.256;2022-08-19T02:29:27;98616.81;;;20.06;75.61
70103;BME280;57470;50.034;15.256;2022-08-19T02:31:52;98614.94;;;20.06;75.97
70103;BME280;57470;50.034;15.256;2022-08-19T02:34:18;98614.94;;;19.77;77.26
70103;BME280;57470;50.034;15.256;2022-08-19T02:36:44;98624.84;;;19.62;77.63
70103;BME280;57470;50.034;15.256;2022-08-19T02:39:10;98623.41;;;19.74;76.59
70103;BME280;57470;50.034;15.256;2022-08-19T02:41:35;98618.94;;;19.81;76.20
70103;BME280;57470;50.034;15.256;2022-08-19T02:44:02;98622.00;;;19.78;76.47
70103;BME280;57470;50.034;15.256;2022-08-19T02:46:30;98625.34;;;19.80;76.34
70103;BME280;57470;50.034;15.256;2022-08-19T02:49:00;98630.78;;;19.34;78.56
70103;BME280;57470;50.034;15.256;2022-08-19T02:51:31;98640.03;;;19.77;76.37
70103;BME280;57470;50.034;15.256;2022-08-19T02:53:57;98647.50;;;19.90;76.06
70103;BME280;57470;50.034;15.256;2022-08-19T02:56:24;98655.78;;;19.89;76.18
70103;BME280;57470;50.034;15.256;2022-08-19T02:58:50;98649.03;;;19.93;75.36
70103;BME280;57470;50.034;15.256;2022-08-19T03:01:23;98645.66;;;20.05;75.17
70103;BME280;57470;50.034;15.256;2022-08-19T03:03:49;98657.66;;;19.88;76.24
70103;BME280;57470;50.034;15.256;2022-08-19T03:06:15;98663.72;;;19.90;75.69
70103;BME280;57470;50.034;15.256;2022-08-19T03:08:43;98679.16;;;19.96;75.44
70103;BME280;57470;50.034;15.256;2022-08-19T03:11:26;98683.34;;;19.99;75.80
70103;BME280;57470;50.034;15.256;2022-08-19T03:13:53;98678.31;;;19.81;76.27
70103;BME280;57470;50.034;15.256;2022-08-19T03:16:21;98667.22;;;19.76;77.30
70103;BME280;57470;50.034;15.256;2022-08-19T03:18:48;98670.53;;;19.63;77.54
70103;BME280;57470;50.034;15.256;2022-08-19T03:21:19;98668.53;;;19.80;76.61
70103;BME280;57470;50.034;15.256;2022-08-19T03:23:45;98666.94;;;19.71;77.27
70103;BME280;57470;50.034;15.256;2022-08-19T03:26:11;98670.47;;;19.71;77.28
70103;BME280;57470;50.034;15.256;2022-08-19T03:28:37;98670.38;;;19.79;76.74
70103;BME280;57470;50.034;15.256;2022-08-19T03:31:09;98670.94;;;19.75;77.56
70103;BME280;57470;50.034;15.256;2022-08-19T03:33:35;98665.75;;;19.88;76.90
70103;BME280;57470;50.034;15.256;2022-08-19T03:36:10;98666.06;;;19.93;76.36
70103;BME280;57470;50.034;15.256;2022-08-19T03:38:38;98663.34;;;19.93;76.28
70103;BME280;57470;50.034;15.256;2022-08-19T03:41:06;98667.41;;;19.74;77.32
70103;BME280;57470;50.034;15.256;2022-08-19T03:43:33;98668.59;;;19.72;77.82
70103;BME280;57470;50.034;15.256;2022-08-19T03:46:11;98667.41;;;19.74;77.57
70103;BME280;57470;50.034;15.256;2022-08-19T03:48:38;98670.63;;;19.55;78.30
70103;BME280;57470;50.034;15.256;2022-08-19T03:51:05;98665.31;;;19.62;77.98
70103;BME280;57470;50.034;15.256;2022-08-19T03:53:32;98674.34;;;19.69;77.62
70103;BME280;57470;50.034;15.256;2022-08-19T03:55:57;98667.19;;;19.61;78.11
70103;BME280;57470;50.034;15.256;2022-08-19T03:58:25;98662.34;;;19.57;78.52
70103;BME280;57470;50.034;15.256;2022-08-19T04:00:52;98652.31;;;19.42;79.19
70103;BME280;57470;50.034;15.256;2022-08-19T04:03:18;98644.97;;;19.59;78.82
70103;BME280;57470;50.034;15.256;2022-08-19T04:05:44;98644.00;;;19.52;78.99
70103;BME280;57470;50.034;15.256;2022-08-19T04:08:09;98657.66;;;19.05;82.02
70103;BME280;57470;50.034;15.256;2022-08-19T04:10:36;98667.44;;;19.52;79.44
70103;BME280;57470;50.034;15.256;2022-08-19T04:13:03;98652.22;;;19.59;79.17
70103;BME280;57470;50.034;15.256;2022-08-19T04:15:29;98662.56;;;19.70;79.18
70103;BME280;57470;50.034;15.256;2022-08-19T04:17:56;98655.44;;;19.77;79.15
70103;BME280;57470;50.034;15.256;2022-08-19T04:20:22;98661.09;;;19.82;78.79
70103;BME280;57470;50.034;15.256;2022-08-19T04:22:47;98657.72;;;19.80;79.03
70103;BME280;57470;50.034;15.256;2022-08-19T04:25:12;98666.50;;;19.82;79.02
70103;BME280;57470;50.034;15.256;2022-08-19T04:27:38;98681.31;;;19.86;78.63
70103;BME280;57470;50.034;15.256;2022-08-19T04:30:03;98683.72;;;19.96;79.09
70103;BME280;57470;50.034;15.256;2022-08-19T04:32:29;98677.28;;;19.82;79.12
70103;BME280;57470;50.034;15.256;2022-08-19T04:34:57;98680.38;;;19.94;79.30
70103;BME280;57470;50.034;15.256;2022-08-19T04:37:24;98690.25;;;20.01;79.35
70103;BME280;57470;50.034;15.256;2022-08-19T04:39:51;98695.97;;;20.21;78.74
70103;BME280;57470;50.034;15.256;2022-08-19T04:42:35;98696.41;;;20.24;78.80
70103;BME280;57470;50.034;15.256;2022-08-19T04:45:06;98698.88;;;20.34;77.80
70103;BME280;57470;50.034;15.256;2022-08-19T04:47:31;98705.31;;;20.48;77.95
70103;BME280;57470;50.034;15.256;2022-08-19T04:49:58;98716.97;;;20.48;78.32
70103;BME280;57470;50.034;15.256;2022-08-19T04:52:23;98709.31;;;20.52;78.55
70103;BME280;57470;50.034;15.256;2022-08-19T04:54:49;98709.31;;;20.52;78.63
70103;BME280;57470;50.034;15.256;2022-08-19T04:57:14;98712.41;;;20.49;79.37
70103;BME280;57470;50.034;15.256;2022-08-19T04:59:40;98704.00;;;20.73;79.22
70103;BME280;57470;50.034;15.256;2022-08-19T05:02:08;98715.25;;;20.77;78.93
70103;BME280;57470;50.034;15.256;2022-08-19T05:04:34;98728.34;;;20.94;78.95
70103;BME280;57470;50.034;15.256;2022-08-19T05:07:00;98723.06;;;21.01;79.51
70103;BME280;57470;50.034;15.256;2022-08-19T05:09:26;98711.47;;;21.07;80.40
70103;BME280;57470;50.034;15.256;2022-08-19T05:11:52;98729.22;;;21.31;78.61
70103;BME280;57470;50.034;15.256;2022-08-19T05:14:18;98710.97;;;21.54;77.67
70103;BME280;57470;50.034;15.256;2022-08-19T05:16:44;98700.53;;;21.51;78.60
70103;BME280;57470;50.034;15.256;2022-08-19T05:19:10;98721.66;;;21.62;77.25
70103;BME280;57470;50.034;15.256;2022-08-19T05:21:54;98723.06;;;21.80;75.98
70103;BME280;57470;50.034;15.256;2022-08-19T05:24:38;98726.34;;;21.96;76.13
70103;BME280;57470;50.034;15.256;2022-08-19T05:27:04;98735.38;;;21.40;78.24
70103;BME280;57470;50.034;15.256;2022-08-19T05:29:31;98742.13;;;21.50;78.07
70103;BME280;57470;50.034;15.256;2022-08-19T05:31:57;98750.28;;;21.71;78.04
70103;BME280;57470;50.034;15.256;2022-08-19T05:34:24;98764.81;;;21.49;78.72
70103;BME280;57470;50.034;15.256;2022-08-19T05:36:56;98769.50;;;21.41;78.97
70103;BME280;57470;50.034;15.256;2022-08-19T05:39:23;98763.16;;;21.69;78.53
70103;BME280;57470;50.034;15.256;2022-08-19T05:41:53;98771.53;;;21.75;77.48
70103;BME280;57470;50.034;15.256;2022-08-19T05:44:19;98770.25;;;21.92;76.32
70103;BME280;57470;50.034;15.256;2022-08-19T05:46:46;98773.59;;;21.94;77.53
70103;BME280;57470;50.034;15.256;2022-08-19T05:49:13;98770.34;;;21.98;76.32
70103;BME280;57470;50.034;15.256;2022-08-19T05:51:39;98762.97;;;22.14;76.12
70103;BME280;57470;50.034;15.256;2022-08-19T05:54:05;98766.13;;;22.17;75.79
70103;BME280;57470;50.034;15.256;2022-08-19T05:56:32;98770.63;;;22.66;74.57
70103;BME280;57470;50.034;15.256;2022-08-19T05:59:02;98779.41;;;23.02;73.30
70103;BME280;57470;50.034;15.256;2022-08-19T06:01:29;98790.16;;;22.82;75.15
70103;BME280;57470;50.034;15.256;2022-08-19T06:03:54;98798.72;;;22.86;75.60
70103;BME280;57470;50.034;15.256;2022-08-19T06:06:21;98806.81;;;22.52;77.60
70103;BME280;57470;50.034;15.256;2022-08-19T06:08:46;98807.25;;;22.83;76.15
70103;BME280;57470;50.034;15.256;2022-08-19T06:14:16;98820.97;;;22.75;75.86
70103;BME280;57470;50.034;15.256;2022-08-19T06:16:43;98826.13;;;22.70;77.83
70103;BME280;57470;50.034;15.256;2022-08-19T06:19:15;98822.41;;;23.05;76.41
70103;BME280;57470;50.034;15.256;2022-08-19T06:21:43;98829.53;;;23.06;75.13
70103;BME280;57470;50.034;15.256;2022-08-19T06:24:14;98823.97;;;23.28;74.47
70103;BME280;57470;50.034;15.256;2022-08-19T06:26:44;98832.34;;;23.26;74.83
70103;BME280;57470;50.034;15.256;2022-08-19T06:29:14;98846.25;;;23.51;73.67
70103;BME280;57470;50.034;15.256;2022-08-19T06:31:45;98843.44;;;23.38;73.96
70103;BME280;57470;50.034;15.256;2022-08-19T06:34:12;98847.13;;;23.65;73.05
70103;BME280;57470;50.034;15.256;2022-08-19T06:36:41;98854.06;;;23.80;73.50
70103;BME280;57470;50.034;15.256;2022-08-19T06:39:14;98852.41;;;23.86;73.14
70103;BME280;57470;50.034;15.256;2022-08-19T06:41:42;98862.47;;;23.99;72.34
70103;BME280;57470;50.034;15.256;2022-08-19T06:44:09;98862.69;;;24.17;71.83
70103;BME280;57470;50.034;15.256;2022-08-19T06:46:35;98861.66;;;24.05;71.85
70103;BME280;57470;50.034;15.256;2022-08-19T06:49:01;98864.66;;;24.29;71.09
70103;BME280;57470;50.034;15.256;2022-08-19T06:51:27;98864.38;;;24.18;71.43
70103;BME280;57470;50.034;15.256;2022-08-19T06:53:54;98875.66;;;24.08;71.23
70103;BME280;57470;50.034;15.256;2022-08-19T06:56:26;98884.63;;;24.02;72.12
70103;BME280;57470;50.034;15.256;2022-08-19T06:59:03;98896.00;;;23.71;73.21
70103;BME280;57470;50.034;15.256;2022-08-19T07:01:28;98889.63;;;23.92;72.16
70103;BME280;57470;50.034;15.256;2022-08-19T07:03:54;98892.59;;;24.04;71.18
70103;BME280;57470;50.034;15.256;2022-08-19T07:06:20;98902.63;;;24.10;71.39
70103;BME280;57470;50.034;15.256;2022-08-19T07:08:47;98901.88;;;23.68;74.06
70103;BME280;57470;50.034;15.256;2022-08-19T07:11:16;98902.53;;;23.83;72.61
70103;BME280;57470;50.034;15.256;2022-08-19T07:13:43;98906.44;;;24.22;71.69
70103;BME280;57470;50.034;15.256;2022-08-19T07:16:13;98904.94;;;24.06;71.31
70103;BME280;57470;50.034;15.256;2022-08-19T07:18:40;98901.88;;;24.55;69.67
70103;BME280;57470;50.034;15.256;2022-08-19T07:21:11;98903.06;;;24.07;70.72
70103;BME280;57470;50.034;15.256;2022-08-19T07:23:37;98891.09;;;24.01;71.03
70103;BME280;57470;50.034;15.256;2022-08-19T07:26:18;98884.56;;;23.76;72.01
70103;BME280;57470;50.034;15.256;2022-08-19T07:28:45;98868.63;;;24.40;70.83
70103;BME280;57470;50.034;15.256;2022-08-19T07:31:13;98870.06;;;24.36;70.42
70103;BME280;57470;50.034;15.256;2022-08-19T07:33:40;98856.09;;;24.33;70.53
70103;BME280;57470;50.034;15.256;2022-08-19T07:36:07;98850.63;;;24.72;69.22
70103;BME280;57470;50.034;15.256;2022-08-19T07:38:33;98854.00;;;24.94;68.07
70103;BME280;57470;50.034;15.256;2022-08-19T07:41:00;98845.31;;;25.23;67.79
70103;BME280;57470;50.034;15.256;2022-08-19T07:43:27;98832.75;;;25.29;68.11
70103;BME280;57470;50.034;15.256;2022-08-19T07:45:54;98802.88;;;25.09;68.17
70103;BME280;57470;50.034;15.256;2022-08-19T07:48:24;98773.69;;;25.74;66.36
70103;BME280;57470;50.034;15.256;2022-08-19T07:50:52;98764.09;;;25.96;65.38
70103;BME280;57470;50.034;15.256;2022-08-19T07:53:18;98754.00;;;26.03;66.46
70103;BME280;57470;50.034;15.256;2022-08-19T07:55:44;98731.78;;;26.25;64.02
70103;BME280;57470;50.034;15.256;2022-08-19T07:58:12;98714.59;;;25.99;64.48
70103;BME280;57470;50.034;15.256;2022-08-19T08:00:38;98692.75;;;25.81;64.53
70103;BME280;57470;50.034;15.256;2022-08-19T08:03:03;98705.19;;;25.95;64.78
70103;BME280;57470;50.034;15.256;2022-08-19T08:05:29;98724.00;;;26.03;64.07
70103;BME280;57470;50.034;15.256;2022-08-19T08:08:13;98753.47;;;25.88;64.75
70103;BME280;57470;50.034;15.256;2022-08-19T08:11:08;98767.47;;;25.60;65.22
70103;BME280;57470;50.034;15.256;2022-08-19T08:13:34;98789.03;;;25.62;65.19
70103;BME280;57470;50.034;15.256;2022-08-19T08:16:02;98793.97;;;25.78;64.79
70103;BME280;57470;50.034;15.256;2022-08-19T08:18:27;98788.69;;;26.14;64.02
70103;BME280;57470;50.034;15.256;2022-08-19T08:20:54;98791.84;;;26.43;63.68
70103;BME280;57470;50.034;15.256;2022-08-19T08:23:19;98791.72;;;26.31;64.23
70103;BME280;57470;50.034;15.256;2022-08-19T08:25:48;98802.09;;;26.16;64.01
70103;BME280;57470;50.034;15.256;2022-08-19T08:28:15;98797.72;;;26.40;62.65
70103;BME280;57470;50.034;15.256;2022-08-19T08:30:41;98790.56;;;26.45;62.78
70103;BME280;57470;50.034;15.256;2022-08-19T08:33:09;98794.38;;;27.06;61.85
70103;BME280;57470;50.034;15.256;2022-08-19T08:35:35;98807.28;;;27.17;61.34
70103;BME280;57470;50.034;15.256;2022-08-19T08:38:03;98802.16;;;27.39;60.49
70103;BME280;57470;50.034;15.256;2022-08-19T08:43:27;98829.47;;;26.59;64.35
70103;BME280;57470;50.034;15.256;2022-08-19T08:46:03;98833.44;;;26.63;62.99
70103;BME280;57470;50.034;15.256;2022-08-19T08:48:46;98830.25;;;26.91;62.94
70103;BME280;57470;50.034;15.256;2022-08-19T08:51:36;98830.38;;;26.96;62.12
70103;BME280;57470;50.034;15.256;2022-08-19T08:54:06;98837.53;;;27.34;61.12
70103;BME280;57470;50.034;15.256;2022-08-19T08:56:34;98826.75;;;27.20;60.91
70103;BME280;57470;50.034;15.256;2022-08-19T08:59:10;98822.31;;;27.26;60.47
70103;BME280;57470;50.034;15.256;2022-08-19T09:01:37;98829.56;;;27.32;60.02
70103;BME280;57470;50.034;15.256;2022-08-19T09:04:12;98817.38;;;26.73;62.17
70103;BME280;57470;50.034;15.256;2022-08-19T09:07:02;98832.56;;;26.87;63.27
70103;BME280;57470;50.034;15.256;2022-08-19T09:09:43;98821.22;;;27.45;60.46
70103;BME280;57470;50.034;15.256;2022-08-19T09:12:28;98824.28;;;27.19;62.40
70103;BME280;57470;50.034;15.256;2022-08-19T09:15:00;98824.03;;;27.57;58.96
70103;BME280;57470;50.034;15.256;2022-08-19T09:17:30;98828.38;;;27.65;57.84
70103;BME280;57470;50.034;15.256;2022-08-19T09:19:57;98836.44;;;28.01;58.08
70103;BME280;57470;50.034;15.256;2022-08-19T09:22:23;98837.53;;;28.00;56.55
70103;BME280;57470;50.034;15.256;2022-08-19T09:24:50;98836.69;;;28.29;56.89
70103;BME280;57470;50.034;15.256;2022-08-19T09:27:22;98836.69;;;28.29;59.51
70103;BME280;57470;50.034;15.256;2022-08-19T09:29:52;98832.97;;;28.77;56.36
70103;BME280;57470;50.034;15.256;2022-08-19T09:32:20;98839.28;;;28.78;58.94
70103;BME280;57470;50.034;15.256;2022-08-19T09:34:45;98838.69;;;28.87;55.88
70103;BME280;57470;50.034;15.256;2022-08-19T09:37:13;98825.81;;;28.99;56.24
70103;BME280;57470;50.034;15.256;2022-08-19T09:39:39;98828.22;;;28.96;56.20
70103;BME280;57470;50.034;15.256;2022-08-19T09:42:06;98823.75;;;29.18;55.47
70103;BME280;57470;50.034;15.256;2022-08-19T09:44:40;98839.13;;;29.31;54.39
70103;BME280;57470;50.034;15.256;2022-08-19T09:47:06;98831.34;;;29.51;54.47
70103;BME280;57470;50.034;15.256;2022-08-19T09:49:33;98836.34;;;29.54;53.50
70103;BME280;57470;50.034;15.256;2022-08-19T09:51:58;98834.50;;;29.71;53.46
70103;BME280;57470;50.034;15.256;2022-08-19T09:54:25;98849.59;;;29.22;53.28
70103;BME280;57470;50.034;15.256;2022-08-19T09:56:54;98856.28;;;28.91;55.30
70103;BME280;57470;50.034;15.256;2022-08-19T09:59:20;98851.22;;;28.42;56.33
70103;BME280;57470;50.034;15.256;2022-08-19T10:01:46;98858.03;;;28.51;56.58
70103;BME280;57470;50.034;15.256;2022-08-19T10:04:12;98852.13;;;27.94;58.23
70103;BME280;57470;50.034;15.256;2022-08-19T10:06:39;98840.97;;;27.95;56.98
70103;BME280;57470;50.034;15.256;2022-08-19T10:09:08;98847.19;;;28.44;55.86
70103;BME280;57470;50.034;15.256;2022-08-19T10:11:35;98839.00;;;28.44;57.63
70103;BME280;57470;50.034;15.256;2022-08-19T10:14:03;98831.34;;;28.46;56.26
70103;BME280;57470;50.034;15.256;2022-08-19T10:16:31;98831.88;;;27.83;59.21
70103;BME280;57470;50.034;15.256;2022-08-19T10:18:57;98831.22;;;28.18;58.84
70103;BME280;57470;50.034;15.256;2022-08-19T10:21:26;98833.72;;;28.31;59.21
70103;BME280;57470;50.034;15.256;2022-08-19T10:23:56;98843.56;;;28.97;55.98
70103;BME280;57470;50.034;15.256;2022-08-19T10:26:28;98840.44;;;28.70;56.30
70103;BME280;57470;50.034;15.256;2022-08-19T10:28:54;98828.03;;;28.44;57.66
70103;BME280;57470;50.034;15.256;2022-08-19T10:31:23;98844.28;;;29.04;54.95
70103;BME280;57470;50.034;15.256;2022-08-19T10:33:49;98836.50;;;28.54;56.91
70103;BME280;57470;50.034;15.256;2022-08-19T10:36:20;98842.19;;;28.64;56.86
70103;BME280;57470;50.034;15.256;2022-08-19T10:38:49;98854.69;;;28.49;57.50
70103;BME280;57470;50.034;15.256;2022-08-19T10:41:21;98849.00;;;28.62;57.39
70103;BME280;57470;50.034;15.256;2022-08-19T10:43:50;98849.56;;;28.41;57.54
70103;BME280;57470;50.034;15.256;2022-08-19T10:46:17;98854.88;;;28.89;55.48
70103;BME280;57470;50.034;15.256;2022-08-19T10:48:44;98848.41;;;29.30;54.80
70103;BME280;57470;50.034;15.256;2022-08-19T10:51:10;98849.66;;;29.62;53.96
70103;BME280;57470;50.034;15.256;2022-08-19T10:53:56;98844.69;;;29.47;54.25
70103;BME280;57470;50.034;15.256;2022-08-19T10:56:22;98828.50;;;29.46;54.17
70103;BME280;57470;50.034;15.256;2022-08-19T10:59:06;98829.75;;;29.03;57.09
70103;BME280;57470;50.034;15.256;2022-08-19T11:01:33;98835.47;;;29.02;56.30
70103;BME280;57470;50.034;15.256;2022-08-19T11:04:03;98830.84;;;29.54;55.19
70103;BME280;57470;50.034;15.256;2022-08-19T11:06:31;98824.31;;;29.83;52.91
70103;BME280;57470;50.034;15.256;2022-08-19T11:08:57;98817.75;;;29.56;54.04
70103;BME280;57470;50.034;15.256;2022-08-19T11:11:23;98816.16;;;30.00;53.13
70103;BME280;57470;50.034;15.256;2022-08-19T11:13:49;98823.75;;;29.41;55.62
70103;BME280;57470;50.034;15.256;2022-08-19T11:16:23;98816.22;;;29.48;54.45
70103;BME280;57470;50.034;15.256;2022-08-19T11:18:51;98805.44;;;29.70;52.87
70103;BME280;57470;50.034;15.256;2022-08-19T11:21:26;98797.25;;;29.59;53.44
70103;BME280;57470;50.034;15.256;2022-08-19T11:23:55;98791.78;;;30.32;52.15
70103;BME280;57470;50.034;15.256;2022-08-19T11:26:21;98788.78;;;30.67;51.58
70103;BME280;57470;50.034;15.256;2022-08-19T11:28:47;98787.44;;;30.19;52.27
70103;BME280;57470;50.034;15.256;2022-08-19T11:31:22;98787.09;;;30.83;51.23
70103;BME280;57470;50.034;15.256;2022-08-19T11:33:48;98785.59;;;30.25;52.31
70103;BME280;57470;50.034;15.256;2022-08-19T11:36:19;98788.06;;;30.93;49.91
70103;BME280;57470;50.034;15.256;2022-08-19T11:38:46;98796.31;;;30.93;50.77
70103;BME280;57470;50.034;15.256;2022-08-19T11:41:14;98787.03;;;31.16;50.60
70103;BME280;57470;50.034;15.256;2022-08-19T11:43:40;98785.19;;;31.05;50.22
70103;BME280;57470;50.034;15.256;2022-08-19T11:46:07;98788.25;;;30.87;50.31
70103;BME280;57470;50.034;15.256;2022-08-19T11:48:34;98778.59;;;30.84;50.41
70103;BME280;57470;50.034;15.256;2022-08-19T11:51:04;98784.16;;;30.89;50.86
70103;BME280;57470;50.034;15.256;2022-08-19T11:53:31;98773.41;;;30.88;49.54
70103;BME280;57470;50.034;15.256;2022-08-19T11:55:57;98768.63;;;30.28;50.84
70103;BME280;57470;50.034;15.256;2022-08-19T11:58:23;98764.81;;;30.63;50.39
70103;BME280;57470;50.034;15.256;2022-08-19T12:00:50;98765.97;;;30.50;50.58
70103;BME280;57470;50.034;15.256;2022-08-19T12:03:15;98774.56;;;30.53;50.25
70103;BME280;57470;50.034;15.256;2022-08-19T12:05:41;98772.22;;;30.62;49.99
70103;BME280;57470;50.034;15.256;2022-08-19T12:08:06;98775.72;;;30.57;50.05
70103;BME280;57470;50.034;15.256;2022-08-19T12:10:33;98764.13;;;30.72;49.81
70103;BME280;57470;50.034;15.256;2022-08-19T12:12:59;98762.75;;;31.30;49.28
70103;BME280;57470;50.034;15.256;2022-08-19T12:15:25;98762.97;;;31.07;49.26
70103;BME280;57470;50.034;15.256;2022-08-19T12:17:55;98761.94;;;30.91;48.11
70103;BME280;57470;50.034;15.256;2022-08-19T12:20:23;98759.81;;;30.76;49.41
70103;BME280;57470;50.034;15.256;2022-08-19T12:22:49;98762.97;;;30.85;49.03
70103;BME280;57470;50.034;15.256;2022-08-19T12:25:16;98766.69;;;30.79;49.44
70103;BME280;57470;50.034;15.256;2022-08-19T12:27:41;98771.38;;;31.17;47.77
70103;BME280;57470;50.034;15.256;2022-08-19T12:30:10;98771.13;;;31.40;47.09
70103;BME280;57470;50.034;15.256;2022-08-19T12:32:37;98765.47;;;31.74;47.16
70103;BME280;57470;50.034;15.256;2022-08-19T12:35:03;98747.94;;;31.80;47.08
70103;BME280;57470;50.034;15.256;2022-08-19T12:37:29;98755.34;;;31.30;47.70
70103;BME280;57470;50.034;15.256;2022-08-19T12:39:55;98753.69;;;31.78;47.02
70103;BME280;57470;50.034;15.256;2022-08-19T12:42:20;98762.03;;;31.18;48.04
70103;BME280;57470;50.034;15.256;2022-08-19T12:44:47;98758.19;;;31.62;49.25
70103;BME280;57470;50.034;15.256;2022-08-19T12:47:13;98763.47;;;32.23;47.30
70103;BME280;57470;50.034;15.256;2022-08-19T12:49:40;98752.69;;;31.62;47.85
70103;BME280;57470;50.034;15.256;2022-08-19T12:52:08;98749.13;;;31.62;47.70
70103;BME280;57470;50.034;15.256;2022-08-19T12:54:35;98758.13;;;31.57;47.49
70103;BME280;57470;50.034;15.256;2022-08-19T12:57:05;98749.56;;;31.32;48.21
70103;BME280;57470;50.034;15.256;2022-08-19T12:59:33;98747.97;;;31.58;48.20
70103;BME280;57470;50.034;15.256;2022-08-19T13:01:59;98741.34;;;31.59;47.13